Terminal Aerodrome Forecast
Issued by NWS Jackson, KY

Home | Current Version | Previous Version | Text Only | Print | Product List | Glossary On
Versions: 1 2 3 4 5 6 7 8 9 10 11 12 13 14 15 16 17 18 19 20 21 22
000
FTUS43 KJKL 241739
TAFJKL
TAF
KJKL 241739Z 2418/2518 VRB03KT 5SM -SHRA BR BKN035 OVC045
     FM242200 VRB03KT 4SM -SHRA BKN025 OVC035
     FM250000 VRB03KT 6SM BR VCSH OVC015
     FM250400 31003KT 2SM BR VCSH OVC002
     FM251400 33007KT P6SM OVC008=

USA.gov is the U.S. government's official web portal to all federal, state and local government web resources and services.